Time;durP1;ratioP1;P1;durP2;ratioP2;P2;SDS_P1;SDS_P2;PMS_P1;PMS_P2;Temp;Humidity;BMP_temperature;BMP_pressure;BME280_temperature;BME280_humidity;BME280_pressure;Samples;Min_cycle;Max_cycle;Signal;HPM_P1;HPM_P2
2022/07/19 00:01:49;;;;;;;13.25;10.45;;;;;;;22.50;58.95;101768.75;5004861;28;20049;-60
2022/07/19 00:04:14;;;;;;;12.65;11.25;;;;;;;;;;5007966;28;20428;-59
2022/07/19 00:06:39;;;;;;;16.67;11.77;;;;;;;;;;5008255;28;20488;-59
2022/07/19 00:09:05;;;;;;;12.68;11.30;;;;;;;22.34;60.08;101746.81;5008509;28;20300;-59
2022/07/19 00:11:31;;;;;;;14.68;12.40;;;;;;;22.31;60.42;101746.81;5006679;28;20034;-60
2022/07/19 00:13:56;;;;;;;12.80;11.13;;;;;;;22.26;60.13;101741.56;4999837;28;20025;-60
2022/07/19 00:16:22;;;;;;;13.07;11.75;;;;;;;22.20;60.17;101744.25;5009493;28;20121;-59
2022/07/19 00:18:47;;;;;;;14.63;11.18;;;;;;;22.12;60.40;101741.69;5004761;28;20026;-59
2022/07/19 00:21:12;;;;;;;14.15;11.63;;;;;;;22.02;60.99;101740.91;5008546;28;20175;-59
2022/07/19 00:23:38;;;;;;;12.13;10.82;;;;;;;22.04;60.12;101741.78;5010348;28;20033;-59
2022/07/19 00:26:04;;;;;;;11.73;10.52;;;;;;;22.04;60.56;101738.22;5006752;28;20048;-59
2022/07/19 00:28:29;;;;;;;12.40;10.77;;;;;;;22.02;60.42;101735.59;5003871;28;20030;-60
2022/07/19 00:30:54;;;;;;;12.13;10.93;;;;;;;21.98;61.06;101739.16;5001743;28;20036;-60
2022/07/19 00:33:20;;;;;;;13.10;11.30;;;;;;;21.98;60.66;101732.97;5007713;28;20051;-59
2022/07/19 00:35:45;;;;;;;13.02;10.48;;;;;;;21.94;61.00;101729.50;5007245;28;20020;-59
2022/07/19 00:38:12;;;;;;;11.85;10.63;;;;;;;21.89;61.28;101731.28;5006579;28;20496;-59
2022/07/19 00:40:40;;;;;;;12.07;10.85;;;;;;;21.88;60.79;101726.88;5008507;28;20068;-60
2022/07/19 00:43:06;;;;;;;12.83;10.80;;;;;;;21.82;60.97;101726.94;5009032;28;20481;-60
2022/07/19 00:45:32;;;;;;;11.77;10.57;;;;;;;21.80;61.32;101734.91;5008008;28;20811;-60
2022/07/19 00:47:57;;;;;;;13.38;11.95;;;;;;;21.75;61.38;101722.59;5007631;28;20064;-60
2022/07/19 00:50:23;;;;;;;12.85;11.75;;;;;;;21.69;61.70;101721.72;5006672;28;20045;-59
2022/07/19 00:53:04;;;;;;;13.68;12.30;;;;;;;21.68;61.50;101730.59;5005969;28;20105;-60
2022/07/19 00:55:31;;;;;;;13.13;11.85;;;;;;;21.64;61.31;101726.22;5007657;28;20050;-59
2022/07/19 00:57:57;;;;;;;13.30;12.07;;;;;;;21.60;61.32;101731.56;5007393;28;20037;-59
2022/07/19 01:00:23;;;;;;;13.85;12.40;;;;;;;21.59;61.41;101730.66;5006082;28;20037;-60
2022/07/19 01:02:51;;;;;;;14.45;13.02;;;;;;;21.51;62.29;101729.88;5003560;28;20026;-60
2022/07/19 01:05:17;;;;;;;13.70;12.15;;;;;;;21.48;61.42;101728.06;5003123;28;20030;-60
2022/07/19 01:07:43;;;;;;;13.38;12.00;;;;;;;21.46;61.74;101721.88;5007655;28;20030;-60
2022/07/19 01:10:11;;;;;;;12.25;11.07;;;;;;;21.42;61.91;101724.56;5005091;28;20039;-59
2022/07/19 01:12:37;;;;;;;12.02;10.77;;;;;;;21.40;62.38;101721.06;5004482;28;20072;-59
2022/07/19 01:15:18;;;;;;;13.15;11.85;;;;;;;21.39;61.39;101722.81;5006372;28;20037;-60
2022/07/19 01:17:43;;;;;;;13.43;12.10;;;;;;;21.35;62.17;101723.75;5002960;28;20065;-60
2022/07/19 01:20:10;;;;;;;14.45;11.73;;;;;;;21.31;61.33;101722.88;5007379;28;20452;-59
2022/07/19 01:22:35;;;;;;;13.23;12.02;;;;;;;21.29;61.35;101724.69;5005730;28;20034;-59
2022/07/19 01:25:00;;;;;;;14.48;12.98;;;;;;;21.19;62.19;101725.63;5007814;28;20053;-60
2022/07/19 01:27:25;;;;;;;13.40;12.20;;;;;;;21.17;62.31;101725.66;5006406;28;20558;-60
2022/07/19 01:29:51;;;;;;;13.70;12.25;;;;;;;21.18;61.91;101722.09;5005966;28;20120;-59
2022/07/19 01:32:16;;;;;;;13.70;12.35;;;;;;;21.16;62.04;101721.22;5005646;28;20113;-60
2022/07/19 01:34:41;;;;;;;13.65;12.25;;;;;;;21.15;61.19;101727.41;5008241;28;20036;-59
2022/07/19 01:37:07;;;;;;;12.18;11.02;;;;;;;21.09;61.70;101719.50;5007763;28;20028;-59
2022/07/19 01:39:32;;;;;;;13.85;11.30;;;;;;;21.05;62.46;101719.53;5012273;28;20037;-59
2022/07/19 01:41:58;;;;;;;13.05;11.52;;;;;;;21.02;62.08;101723.09;5011896;28;20037;-59
2022/07/19 01:44:23;;;;;;;13.85;12.05;;;;;;;20.97;62.52;101725.75;5011425;28;20034;-60
2022/07/19 01:46:48;;;;;;;13.50;12.20;;;;;;;20.95;61.98;101710.75;5009366;28;20640;-59
2022/07/19 01:49:14;;;;;;;13.40;12.02;;;;;;;20.92;61.77;101722.25;5006641;28;20025;-59
2022/07/19 01:51:39;;;;;;;14.65;12.25;;;;;;;20.87;61.86;101721.41;5007622;28;20039;-59
2022/07/19 01:54:04;;;;;;;14.80;12.52;;;;;;;20.87;61.57;101718.75;5022905;28;20025;-60
2022/07/19 01:56:30;;;;;;;14.00;12.70;;;;;;;20.83;62.23;101719.66;5006685;28;20501;-60
2022/07/19 01:58:55;;;;;;;14.30;12.73;;;;;;;20.80;62.98;101717.03;5009755;28;20283;-59
2022/07/19 02:01:20;;;;;;;13.90;12.50;;;;;;;20.75;62.56;101721.44;5008685;28;20072;-59
2022/07/19 02:03:45;;;;;;;13.35;12.05;;;;;;;20.74;62.96;101722.31;5010351;28;20587;-60
2022/07/19 02:06:11;;;;;;;16.00;13.50;;;;;;;20.66;62.77;101722.34;5010556;28;20455;-59
2022/07/19 02:08:37;;;;;;;13.73;12.13;;;;;;;20.66;62.70;101720.59;5012894;28;20052;-59
2022/07/19 02:11:34;;;;;;;15.07;13.55;;;;;;;20.53;63.61;101721.50;5007920;28;20022;-59
2022/07/19 02:13:48;;;;;;;16.27;13.50;;;;;;;20.54;63.17;101720.63;5002833;28;20080;-60
2022/07/19 02:16:13;;;;;;;14.93;13.48;;;;;;;20.51;62.92;101718.00;5008627;28;20042;-60
2022/07/19 02:18:39;;;;;;;14.57;13.00;;;;;;;20.46;63.25;101712.69;5011898;28;20057;-59
2022/07/19 02:21:04;;;;;;;14.57;13.07;;;;;;;20.47;62.72;101710.94;5009302;28;20040;-59
2022/07/19 02:23:29;;;;;;;13.65;12.40;;;;;;;20.45;63.30;101712.69;5010981;28;20084;-59
2022/07/19 02:25:55;;;;;;;14.85;13.45;;;;;;;20.41;63.42;101708.34;5008356;28;20025;-59
2022/07/19 02:28:20;;;;;;;14.60;13.20;;;;;;;20.39;63.40;101697.75;5009480;28;20033;-59
2022/07/19 02:30:45;;;;;;;15.60;13.35;;;;;;;20.38;63.33;101700.38;5007883;28;20120;-59
2022/07/19 02:33:11;;;;;;;15.07;13.60;;;;;;;20.37;62.77;101695.97;5006666;28;20183;-59
2022/07/19 02:35:36;;;;;;;14.20;12.90;;;;;;;20.32;63.01;101699.53;5008381;28;20492;-60
2022/07/19 02:38:01;;;;;;;15.45;13.93;;;;;;;20.30;63.76;101698.63;5009105;28;20030;-60
2022/07/19 02:40:27;;;;;;;16.48;14.98;;;;;;;20.26;63.64;101698.66;5011423;28;20501;-59
2022/07/19 02:42:52;;;;;;;16.63;14.93;;;;;;;20.26;63.72;101696.91;5009049;28;20030;-59
2022/07/19 02:45:17;;;;;;;17.23;15.68;;;;;;;20.21;64.05;101698.66;5009381;28;20512;-60
2022/07/19 02:47:42;;;;;;;17.70;15.98;;;;;;;20.20;63.89;101691.59;5006584;28;20026;-59
2022/07/19 02:50:08;;;;;;;18.33;16.30;;;;;;;20.13;63.94;101695.16;4999182;28;20026;-59
2022/07/19 02:52:33;;;;;;;17.13;15.43;;;;;;;20.13;63.89;101690.75;5005869;28;20108;-60
2022/07/19 02:54:59;;;;;;;17.48;15.70;;;;;;;20.04;64.31;101692.53;5006934;28;20037;-59
2022/07/19 02:57:24;;;;;;;17.38;15.27;;;;;;;20.02;64.48;101692.53;5009909;28;20041;-59
2022/07/19 02:59:49;;;;;;;17.33;15.63;;;;;;;19.97;64.96;101689.00;5009326;28;20055;-60
2022/07/19 03:02:15;;;;;;;18.23;16.33;;;;;;;19.95;64.83;101689.00;5003865;28;20037;-60
2022/07/19 03:04:40;;;;;;;17.85;16.05;;;;;;;19.96;64.55;101689.91;5007746;28;20048;-59
2022/07/19 03:07:05;;;;;;;17.27;15.60;;;;;;;19.92;64.37;101690.81;5007507;28;20036;-60
2022/07/19 03:09:31;;;;;;;18.20;16.40;;;;;;;19.93;64.70;101692.56;4999948;28;20092;-59
2022/07/19 03:11:56;;;;;;;17.98;16.30;;;;;;;19.91;64.58;101681.97;5007434;28;20026;-59
2022/07/19 03:14:21;;;;;;;17.65;15.95;;;;;;;19.88;64.23;101681.09;5006813;28;20034;-59
2022/07/19 03:16:47;;;;;;;19.63;16.30;;;;;;;19.84;64.76;101680.22;5006573;28;20037;-60
2022/07/19 03:19:12;;;;;;;17.85;16.23;;;;;;;19.82;64.60;101675.84;5007548;28;20028;-59
2022/07/19 03:21:37;;;;;;;19.38;17.48;;;;;;;19.74;64.98;101684.63;5009277;28;20477;-59
2022/07/19 03:24:03;;;;;;;19.40;17.60;;;;;;;19.70;64.83;101674.94;5010393;28;20100;-60
2022/07/19 03:26:28;;;;;;;18.15;16.52;;;;;;;19.66;64.88;101670.53;5009602;28;20033;-59
2022/07/19 03:28:53;;;;;;;18.67;17.02;;;;;;;19.66;64.92;101665.22;5009598;28;20026;-59
2022/07/19 03:31:19;;;;;;;18.67;17.00;;;;;;;19.61;64.88;101675.81;5006796;28;20040;-59
2022/07/19 03:33:44;;;;;;;19.25;17.45;;;;;;;19.55;65.33;101669.63;5004646;28;20018;-60
2022/07/19 03:36:09;;;;;;;21.65;17.30;;;;;;;19.55;65.08;101673.19;5008458;28;20401;-59
2022/07/19 03:38:35;;;;;;;18.35;16.63;;;;;;;19.53;65.28;101674.94;5010275;28;20065;-60
2022/07/19 03:41:01;;;;;;;19.98;17.90;;;;;;;19.49;65.75;101669.66;5004384;28;20472;-59
2022/07/19 03:43:26;;;;;;;19.45;17.67;;;;;;;19.47;65.17;101674.94;5007503;28;20030;-59
2022/07/19 03:45:52;;;;;;;20.35;18.48;;;;;;;19.39;66.11;101667.03;5010437;28;20385;-59
2022/07/19 03:48:17;;;;;;;20.35;18.25;;;;;;;19.41;65.86;101664.38;5007516;28;20302;-59
2022/07/19 03:50:43;;;;;;;20.50;18.70;;;;;;;19.36;66.27;101663.47;5003548;28;20113;-59
2022/07/19 03:53:08;;;;;;;21.35;19.33;;;;;;;19.26;66.93;101665.22;5006803;28;20124;-59
2022/07/19 03:55:34;;;;;;;22.13;19.92;;;;;;;19.27;66.54;101670.50;5001162;28;20109;-59
2022/07/19 03:57:59;;;;;;;22.77;20.60;;;;;;;19.26;66.20;101678.44;5005812;28;20444;-60
2022/07/19 04:00:25;;;;;;;20.85;18.85;;;;;;;19.25;67.06;101671.41;5006381;28;20056;-60
2022/07/19 04:02:50;;;;;;;21.92;19.63;;;;;;;19.21;66.49;101674.94;5006325;28;20172;-60
2022/07/19 04:05:15;;;;;;;19.15;17.20;;;;;;;19.19;66.28;101674.03;5008497;28;20457;-60
2022/07/19 04:07:41;;;;;;;19.38;17.60;;;;;;;19.14;66.71;101681.09;5010620;28;20129;-59
2022/07/19 04:10:07;;;;;;;19.75;17.95;;;;;;;19.10;67.13;101678.44;5007446;28;20025;-59
2022/07/19 04:12:33;;;;;;;20.52;17.95;;;;;;;19.12;66.78;101678.44;5007251;28;20096;-59
2022/07/19 04:14:58;;;;;;;20.05;18.05;;;;;;;19.11;67.01;101674.03;5005437;28;20029;-59
2022/07/19 04:17:24;;;;;;;19.05;17.15;;;;;;;19.11;66.37;101685.47;5008056;28;20451;-60
2022/07/19 04:19:49;;;;;;;20.00;18.08;;;;;;;19.12;66.87;101670.50;5002717;28;20030;-60
2022/07/19 04:22:14;;;;;;;20.10;18.10;;;;;;;19.07;67.51;101685.47;5005712;28;20492;-60
2022/07/19 04:24:40;;;;;;;21.58;19.38;;;;;;;19.02;67.64;101681.94;5008245;28;20551;-59
2022/07/19 04:27:05;;;;;;;20.52;18.40;;;;;;;19.04;68.06;101680.19;5006848;28;20516;-59
2022/07/19 04:29:31;;;;;;;21.27;19.27;;;;;;;19.03;67.60;101671.38;5008070;28;20044;-59
2022/07/19 04:31:56;;;;;;;19.48;17.65;;;;;;;19.02;67.90;101671.38;5006674;28;20477;-59
2022/07/19 04:34:22;;;;;;;19.20;17.30;;;;;;;19.04;66.99;101672.25;5000636;28;20044;-60
2022/07/19 04:36:47;;;;;;;19.20;17.48;;;;;;;19.05;66.77;101672.25;5003164;28;20493;-59
2022/07/19 04:39:12;;;;;;;21.23;18.75;;;;;;;19.03;68.15;101673.13;5008606;28;20497;-60
2022/07/19 04:41:38;;;;;;;21.65;19.50;;;;;;;18.99;68.17;101668.72;5009735;28;20113;-60
2022/07/19 04:44:03;;;;;;;22.52;20.33;;;;;;;19.00;68.35;101675.75;5003650;28;20129;-59
2022/07/19 04:46:28;;;;;;;23.85;21.58;;;;;;;18.97;68.45;101679.28;5008595;28;20488;-60
2022/07/19 04:48:54;;;;;;;24.70;22.15;;;;;;;18.97;67.81;101675.75;5006108;28;20481;-60
2022/07/19 04:51:19;;;;;;;26.35;23.85;;;;;;;19.00;68.24;101678.41;5005887;28;20100;-60
2022/07/19 04:53:44;;;;;;;29.92;27.27;;;;;;;18.98;68.58;101673.13;5007399;28;20374;-60
2022/07/19 04:56:10;;;;;;;32.70;29.70;;;;;;;18.96;69.04;101677.53;5008276;28;20393;-59
2022/07/19 04:58:35;;;;;;;32.38;29.27;;;;;;;18.98;68.71;101683.69;5006344;28;20030;-59
2022/07/19 05:01:00;;;;;;;32.65;29.75;;;;;;;18.93;69.51;101674.88;5002920;28;20014;-59
2022/07/19 05:03:26;;;;;;;31.63;28.83;;;;;;;18.93;69.32;101678.41;5005904;28;20401;-59
2022/07/19 05:05:51;;;;;;;31.92;28.92;;;;;;;18.96;68.93;101666.97;5000215;28;20049;-59
2022/07/19 05:08:17;;;;;;;32.30;29.27;;;;;;;18.98;69.61;101669.59;5008152;28;20421;-59
2022/07/19 05:10:43;;;;;;;31.52;28.63;;;;;;;18.99;69.92;101671.34;5005720;28;20505;-59
2022/07/19 05:13:08;;;;;;;37.83;34.22;;;;;;;18.98;70.66;101669.59;5009914;28;20068;-60
2022/07/19 05:15:33;;;;;;;36.10;32.70;;;;;;;18.97;70.76;101665.19;5011801;28;20057;-60
2022/07/19 05:17:58;;;;;;;38.13;34.42;;;;;;;19.01;69.89;101670.47;5009532;28;20080;-60
2022/07/19 05:20:24;;;;;;;39.90;36.15;;;;;;;19.03;69.57;101674.03;5010665;28;20441;-60
2022/07/19 05:22:49;;;;;;;42.03;38.22;;;;;;;19.04;70.02;101669.63;5011454;28;20033;-60
2022/07/19 05:25:15;;;;;;;43.08;38.90;;;;;;;19.06;69.79;101670.47;5011368;28;20018;-60
2022/07/19 05:27:40;;;;;;;42.78;39.05;;;;;;;19.11;69.38;101663.47;5011453;28;20022;-60
2022/07/19 05:30:06;;;;;;;43.75;39.80;;;;;;;19.12;71.01;101670.50;5007272;28;20029;-60
2022/07/19 05:32:32;;;;;;;43.38;39.20;;;;;;;19.15;70.40;101673.16;5007841;28;20462;-60
2022/07/19 05:34:57;;;;;;;47.80;43.28;;;;;;;19.13;70.76;101680.19;5007103;28;20034;-60
2022/07/19 05:37:22;;;;;;;48.72;44.22;;;;;;;19.13;70.80;101677.53;5009830;28;20084;-60
2022/07/19 05:39:48;;;;;;;51.13;46.30;;;;;;;19.11;71.78;101677.53;5008229;28;20076;-60
2022/07/19 05:42:13;;;;;;;51.78;46.50;;;;;;;19.15;71.50;101677.53;5008469;28;20030;-60
2022/07/19 05:44:38;;;;;;;53.35;48.33;;;;;;;19.15;71.70;101681.09;5005847;28;20033;-60
2022/07/19 05:47:04;;;;;;;53.55;47.95;;;;;;;19.20;71.78;101687.25;5010714;28;20032;-60
2022/07/19 05:49:29;;;;;;;56.05;50.65;;;;;;;19.22;72.43;101695.16;5007198;28;20022;-60
2022/07/19 05:51:55;;;;;;;57.13;51.53;;;;;;;19.20;71.87;101689.88;5008078;28;20087;-60
2022/07/19 05:54:20;;;;;;;57.75;51.70;;;;;;;19.21;72.16;101691.66;5009292;28;20049;-60
2022/07/19 05:56:45;;;;;;;57.53;52.03;;;;;;;19.24;71.46;101691.66;5011872;28;20104;-60
2022/07/19 05:59:11;;;;;;;57.78;51.67;;;;;;;19.27;70.95;101691.66;5012043;28;20095;-61
2022/07/19 06:01:36;;;;;;;51.35;46.30;;;;;;;19.31;70.87;101687.25;5010334;28;20513;-61
2022/07/19 06:04:02;;;;;;;54.65;49.25;;;;;;;19.36;71.46;101677.56;5005833;28;20050;-60
2022/07/19 06:06:30;;;;;;;50.70;45.58;;;;;;;19.42;71.22;101680.22;5006768;28;20485;-60
2022/07/19 06:08:56;;;;;;;51.25;46.13;;;;;;;19.48;71.55;101687.28;5006481;28;20132;-61
2022/07/19 06:11:22;;;;;;;50.25;45.33;;;;;;;19.56;71.41;101687.28;5008899;28;20026;-60
2022/07/19 06:13:49;;;;;;;50.08;45.00;;;;;;;19.62;71.17;101685.53;5010873;28;20017;-61
2022/07/19 06:16:14;;;;;;;47.83;43.03;;;;;;;19.70;71.46;101689.91;5008607;28;20565;-61
2022/07/19 06:18:40;;;;;;;47.42;42.65;;;;;;;19.76;71.10;101690.78;5011138;28;20112;-61
2022/07/19 06:21:14;;;;;;;48.03;43.17;;;;;;;19.87;70.96;101692.56;5005569;28;20428;-61
2022/07/19 06:23:40;;;;;;;45.33;40.70;;;;;;;19.96;71.45;101682.84;5011034;28;20034;-61
2022/07/19 06:26:06;;;;;;;47.67;42.50;;;;;;;20.06;71.92;101693.41;5009678;28;20026;-60
2022/07/19 06:28:32;;;;;;;45.13;40.60;;;;;;;20.17;72.11;101682.81;5011689;28;20042;-60
2022/07/19 06:30:58;;;;;;;42.53;38.05;;;;;;;20.27;70.73;101684.53;5010726;28;20129;-60
2022/07/19 06:33:23;;;;;;;39.95;35.88;;;;;;;20.41;70.13;101687.16;5006557;28;20456;-61
2022/07/19 06:35:49;;;;;;;38.17;34.15;;;;;;;20.52;70.38;101685.31;5008556;28;20022;-61
2022/07/19 06:38:15;;;;;;;37.55;33.75;;;;;;;20.64;69.48;101685.28;5009610;28;20038;-61
2022/07/19 06:40:40;;;;;;;34.83;31.25;;;;;;;20.77;68.17;101685.22;5007521;28;20038;-61
2022/07/19 06:43:06;;;;;;;35.95;29.50;;;;;;;20.89;68.18;101685.16;5007930;28;20022;-61
2022/07/19 06:45:31;;;;;;;34.45;28.92;;;;;;;21.00;68.18;101680.69;5007892;28;20088;-61
2022/07/19 06:47:57;;;;;;;34.30;28.25;;;;;;;21.12;68.06;101678.84;5009379;28;20033;-61
2022/07/19 06:50:22;;;;;;;31.05;27.02;;;;;;;21.20;68.45;101682.31;5007224;28;20492;-61
2022/07/19 06:52:48;;;;;;;29.98;26.15;;;;;;;21.35;67.02;101679.56;5003851;28;20037;-61
2022/07/19 06:55:13;;;;;;;32.17;25.30;;;;;;;21.46;66.23;101678.59;5005323;28;20034;-60
2022/07/19 06:57:39;;;;;;;29.58;23.95;;;;;;;21.56;65.60;101680.31;5005989;28;20034;-61
2022/07/19 07:00:07;;;;;;;25.42;22.65;;;;;;;21.65;65.20;101676.69;5007912;28;20030;-61
2022/07/19 07:02:33;;;;;;;25.50;21.15;;;;;;;21.80;65.83;101684.50;5004032;28;20033;-61
2022/07/19 07:04:59;;;;;;;23.08;19.83;;;;;;;21.93;64.30;101679.97;5007471;28;20113;-61
2022/07/19 07:07:24;;;;;;;23.60;17.48;;;;;;;22.01;64.12;101680.72;5009972;28;20112;-61
2022/07/19 07:09:49;;;;;;;22.55;18.00;;;;;;;22.14;63.14;101684.13;5010217;28;20112;-60
2022/07/19 07:12:15;;;;;;;24.52;17.58;;;;;;;22.25;64.92;101678.72;5008270;28;20116;-61
2022/07/19 07:14:40;;;;;;;20.80;16.52;;;;;;;22.41;62.50;101679.44;5005734;28;20424;-61
2022/07/19 07:17:06;;;;;;;20.50;16.75;;;;;;;22.56;63.22;101683.69;5004897;28;20040;-61
2022/07/19 07:19:31;;;;;;;19.77;16.10;;;;;;;22.65;64.02;101686.25;4999028;28;20056;-61
2022/07/19 07:21:59;;;;;;;21.15;15.50;;;;;;;22.75;64.15;101679.00;5000913;28;20544;-62
2022/07/19 07:24:25;;;;;;;21.37;15.20;;;;;;;22.86;63.85;101666.44;5001106;28;20501;-61
2022/07/19 07:26:50;;;;;;;22.23;14.73;;;;;;;22.99;64.37;101661.81;5001865;28;20299;-61
2022/07/19 07:29:15;;;;;;;17.58;15.35;;;;;;;23.12;62.45;101665.22;5002458;28;20492;-61
2022/07/19 07:31:41;;;;;;;20.52;14.68;;;;;;;23.27;62.64;101661.41;5001316;28;20029;-61
2022/07/19 07:34:06;;;;;;;21.05;14.25;;;;;;;23.34;62.09;101656.88;4999403;28;20080;-61
2022/07/19 07:36:31;;;;;;;15.40;13.68;;;;;;;23.46;62.54;101661.13;5004596;28;20053;-62
2022/07/19 07:38:57;;;;;;;19.05;13.55;;;;;;;23.57;61.36;101664.47;5000756;28;20148;-61
2022/07/19 07:41:22;;;;;;;16.65;12.82;;;;;;;23.75;59.98;101665.91;5001830;28;20481;-61
2022/07/19 07:43:47;;;;;;;14.63;11.68;;;;;;;23.89;61.28;101661.25;5001553;28;20040;-61
2022/07/19 07:46:12;;;;;;;17.95;11.45;;;;;;;24.03;61.61;101658.34;5001364;28;20393;-62
2022/07/19 07:48:38;;;;;;;15.57;10.95;;;;;;;24.16;61.06;101658.06;5000594;28;20519;-61
2022/07/19 07:51:03;;;;;;;16.05;10.70;;;;;;;24.29;60.90;101654.28;5003456;28;20029;-62
2022/07/19 07:53:30;;;;;;;18.00;10.90;;;;;;;24.44;62.07;101653.94;5000304;28;20383;-59
2022/07/19 07:55:56;;;;;;;14.57;10.25;;;;;;;24.47;60.62;101653.84;5001776;28;20076;-60
2022/07/19 07:58:21;;;;;;;16.02;9.85;;;;;;;24.55;60.39;101647.47;5010048;28;20061;-63
2022/07/19 08:00:46;;;;;;;12.90;10.13;;;;;;;24.66;59.26;101642.84;5006566;28;20485;-62
2022/07/19 08:03:12;;;;;;;14.93;9.40;;;;;;;24.78;59.21;101641.66;5002439;28;20030;-60
2022/07/19 08:05:37;;;;;;;15.15;9.63;;;;;;;24.86;58.72;101649.50;4995982;28;20022;-61
2022/07/19 08:08:03;;;;;;;16.63;9.60;;;;;;;24.99;58.36;101640.31;5008214;28;20464;-60
2022/07/19 08:10:32;;;;;;;12.82;9.40;;;;;;;25.14;58.93;101633.72;5008994;28;20117;-60
2022/07/19 08:12:57;;;;;;;;;;;;;;;25.20;57.74;101638.91;5009747;28;20041;-59
2022/07/19 08:15:22;;;;;;;15.27;8.67;;;;;;;25.41;56.33;101642.84;5010149;28;19921;-59
2022/07/19 08:17:48;;;;;;;13.80;8.93;;;;;;;25.55;55.07;101637.16;5009510;28;20017;-61
2022/07/19 08:20:14;;;;;;;11.60;8.05;;;;;;;25.66;55.49;101636.84;5010218;28;20556;-62
2022/07/19 08:22:39;;;;;;;14.02;8.23;;;;;;;25.81;54.91;101632.88;5008474;28;20033;-62
2022/07/19 08:25:05;;;;;;;13.88;8.07;;;;;;;25.86;55.37;101639.84;5009359;28;20041;-62
2022/07/19 08:27:31;;;;;;;14.57;9.00;;;;;;;25.93;54.10;101635.22;5008441;28;20092;-62
2022/07/19 08:29:56;;;;;;;14.18;8.60;;;;;;;26.03;53.11;101633.22;5007018;28;20046;-62
2022/07/19 08:32:21;;;;;;;12.05;8.40;;;;;;;26.09;51.40;101635.69;5009688;28;20029;-62
2022/07/19 08:34:46;;;;;;;10.63;7.93;;;;;;;26.18;52.37;101632.75;5009356;28;20022;-63
2022/07/19 08:37:12;;;;;;;12.90;8.88;;;;;;;26.31;53.24;101630.59;5010125;28;20057;-60
2022/07/19 08:39:37;;;;;;;13.35;8.98;;;;;;;26.46;52.16;101629.28;5008583;28;20057;-59
2022/07/19 08:42:03;;;;;;;14.15;8.93;;;;;;;26.60;50.48;101622.63;5010023;28;20113;-57
2022/07/19 08:44:29;;;;;;;12.93;7.80;;;;;;;26.58;52.11;101621.78;5008719;28;20014;-60
2022/07/19 08:46:55;;;;;;;11.00;7.40;;;;;;;26.54;52.95;101616.53;5008677;28;20022;-60
2022/07/19 08:49:21;;;;;;;15.60;8.13;;;;;;;26.57;52.86;101630.75;5012359;28;20034;-59
2022/07/19 08:51:48;;;;;;;12.38;8.23;;;;;;;26.59;51.29;101618.19;5014126;28;20168;-60
2022/07/19 08:54:14;;;;;;;13.10;8.60;;;;;;;26.58;51.20;101611.97;5006518;28;20045;-59
2022/07/19 08:59:24;;;;;;;12.90;8.30;;;;;;;26.77;51.43;101616.78;5004067;28;21248;-60
2022/07/19 09:01:50;;;;;;;12.20;8.23;;;;;;;26.84;51.21;101613.00;5012559;28;20037;-60
2022/07/19 09:04:19;;;;;;;12.32;8.23;;;;;;;26.94;50.22;101613.53;5011877;28;20026;-60
2022/07/19 09:06:49;;;;;;;11.52;8.60;;;;;;;27.04;49.20;101609.63;5009880;28;20077;-60
2022/07/19 09:09:36;;;;;;;12.30;7.82;;;;;;;27.13;51.58;101612.03;5011946;28;20054;-60
2022/07/19 09:12:03;;;;;;;12.75;8.48;;;;;;;27.20;49.65;101616.22;5012124;28;20030;-60
2022/07/19 09:14:30;;;;;;;13.00;8.23;;;;;;;27.27;50.88;101608.84;5012011;28;20412;-60
2022/07/19 09:17:11;;;;;;;10.73;8.35;;;;;;;27.42;49.14;101605.69;5006626;28;20029;-60
2022/07/19 09:19:40;;;;;;;14.55;8.25;;;;;;;27.51;46.89;101604.50;5008083;28;20108;-60
2022/07/19 09:22:09;;;;;;;9.85;8.40;;;;;;;27.55;47.51;101599.91;5011391;28;20509;-60
2022/07/19 09:24:38;;;;;;;12.93;8.73;;;;;;;27.70;48.22;101604.69;5011964;28;20048;-60
2022/07/19 09:27:07;;;;;;;12.27;7.70;;;;;;;27.81;47.68;101607.00;5009763;28;20018;-60
2022/07/19 09:29:34;;;;;;;15.00;8.75;;;;;;;27.88;48.78;101602.28;5009938;28;20516;-60
2022/07/19 09:32:16;;;;;;;9.60;8.13;;;;;;;28.10;48.05;101607.75;5013624;28;20788;-60
2022/07/19 09:34:51;;;;;;;13.25;8.18;;;;;;;28.24;47.04;101608.09;5012030;28;20026;-60
2022/07/19 09:37:17;;;;;;;14.18;8.23;;;;;;;28.38;45.26;101595.97;5011432;28;20038;-60
2022/07/19 09:39:45;;;;;;;11.50;8.10;;;;;;;28.48;46.13;101602.72;5008859;28;20034;-60
2022/07/19 09:42:12;;;;;;;11.32;7.90;;;;;;;28.58;45.83;101601.41;5010889;28;20033;-60
2022/07/19 09:44:38;;;;;;;11.13;9.40;;;;;;;28.60;46.36;101599.53;5008446;28;20080;-60
2022/07/19 09:47:03;;;;;;;13.68;9.00;;;;;;;28.78;43.01;101594.41;5008912;28;20420;-60
2022/07/19 09:49:29;;;;;;;10.85;7.95;;;;;;;28.84;45.70;101588.78;5007013;28;20440;-60
2022/07/19 09:51:54;;;;;;;14.50;7.85;;;;;;;28.93;44.67;101587.53;5006695;28;20370;-60
2022/07/19 09:54:26;;;;;;;10.45;7.50;;;;;;;28.98;44.36;101588.19;5011547;28;20037;-60
2022/07/19 09:56:53;;;;;;;11.43;8.20;;;;;;;29.13;43.34;101589.38;5006110;28;20018;-60
2022/07/19 09:59:19;;;;;;;11.10;8.48;;;;;;;29.25;44.50;101586.16;5010012;28;20044;-60
2022/07/19 10:01:48;;;;;;;11.20;7.82;;;;;;;29.37;45.27;101594.63;5005728;28;20084;-60
2022/07/19 10:04:15;;;;;;;10.13;7.43;;;;;;;29.44;44.46;101594.28;5012656;28;20483;-60
2022/07/19 10:06:42;;;;;;;9.48;7.82;;;;;;;29.55;44.55;101591.16;5010638;28;20025;-60
2022/07/19 10:09:10;;;;;;;8.63;7.40;;;;;;;29.69;42.58;101586.97;5012688;28;20049;-60
2022/07/19 10:11:37;;;;;;;9.63;6.63;;;;;;;29.70;42.27;101588.72;5010642;28;20117;-60
2022/07/19 10:14:03;;;;;;;9.27;6.53;;;;;;;29.77;41.02;101583.00;5009469;28;20026;-60
2022/07/19 10:16:39;;;;;;;10.57;7.13;;;;;;;29.96;40.09;101580.34;5007963;28;20034;-60
2022/07/19 10:19:18;;;;;;;9.50;7.05;;;;;;;30.01;40.71;101577.47;5011804;28;20444;-60
2022/07/19 10:21:45;;;;;;;10.50;6.88;;;;;;;30.08;39.98;101580.72;5007913;28;20179;-60
2022/07/19 10:24:11;;;;;;;6.87;6.07;;;;;;;30.19;38.93;101575.72;5009342;28;20037;-60
2022/07/19 10:26:41;;;;;;;10.52;7.00;;;;;;;30.25;38.66;101563.81;5009375;28;20017;-61
2022/07/19 10:29:16;;;;;;;6.68;5.75;;;;;;;30.30;39.47;101568.03;5011368;28;20167;-61
2022/07/19 10:31:43;;;;;;;7.95;6.05;;;;;;;30.46;37.09;101562.81;5005516;28;20030;-61
2022/07/19 10:34:10;;;;;;;8.35;6.22;;;;;;;30.54;36.55;101566.94;5003507;28;20566;-61
2022/07/19 10:36:49;;;;;;;10.07;6.10;;;;;;;30.66;37.10;101555.56;5000270;28;20065;-61
2022/07/19 10:39:17;;;;;;;8.23;5.97;;;;;;;30.74;36.84;101553.38;5003044;28;20033;-60
2022/07/19 10:42:09;;;;;;;8.60;5.70;;;;;;;30.83;39.46;101557.41;5002319;28;20264;-61
2022/07/19 10:44:52;;;;;;;7.75;5.60;;;;;;;30.87;35.54;101556.31;5006949;28;20022;-61
2022/07/19 10:47:17;;;;;;;8.60;5.70;;;;;;;31.10;36.07;101551.59;5003543;28;20032;-61
2022/07/19 10:49:48;;;;;;;10.18;5.80;;;;;;;31.16;35.54;101540.50;5006403;28;20436;-60
2022/07/19 10:52:29;;;;;;;6.38;5.22;;;;;;;31.27;35.92;101537.25;5002486;28;20395;-60
2022/07/19 10:55:16;;;;;;;8.10;5.63;;;;;;;31.44;36.11;101544.44;5002254;28;20029;-61
2022/07/19 10:57:47;;;;;;;7.70;5.55;;;;;;;31.55;34.55;101547.44;5002423;28;20046;-60
2022/07/19 11:00:20;;;;;;;6.40;5.30;;;;;;;31.57;33.67;101540.16;5003715;28;20081;-60
2022/07/19 11:02:47;;;;;;;6.15;5.38;;;;;;;31.63;32.64;101533.56;5007606;28;20087;-61
2022/07/19 11:05:23;;;;;;;6.55;5.18;;;;;;;31.75;34.34;101535.59;5006430;28;20033;-61
2022/07/19 11:07:53;;;;;;;8.80;5.82;;;;;;;31.77;34.70;101538.22;5006741;28;20053;-60
2022/07/19 11:10:29;;;;;;;9.23;5.95;;;;;;;31.93;34.79;101530.16;5006625;28;20026;-60
2022/07/19 11:12:57;;;;;;;8.73;6.30;;;;;;;32.04;34.58;101530.44;5003854;28;20037;-60
2022/07/19 11:15:23;;;;;;;7.53;5.90;;;;;;;32.19;34.25;101523.31;5007668;28;20042;-60